Time;durP1;ratioP1;P1;durP2;ratioP2;P2;SDS_P1;SDS_P2;PMS_P1;PMS_P2;Temp;Humidity;BMP_temperature;BMP_pressure;BME280_temperature;BME280_humidity;BME280_pressure;Samples;Min_cycle;Max_cycle;Signal;HPM_P1;HPM_P2
2021/11/30 00:00:43;;;;;;;;;;;;;;;0.43;100.00;99974.38;5095687;28;20030;-76
2021/11/30 00:03:09;;;;;;;;;;;;;;;0.43;100.00;99982.41;5095643;28;19999;-76
2021/11/30 00:05:35;;;;;;;;;;;;;;;0.44;100.00;99976.13;5095607;28;20050;-77
2021/11/30 00:08:04;;;;;;;;;;;;;;;0.46;100.00;99981.38;5095664;28;20001;-76
2021/11/30 00:10:46;;;;;;;;;;;;;;;0.49;100.00;99982.09;5095358;28;20025;-76
2021/11/30 00:13:12;;;;;;;;;;;;;;;0.53;100.00;99965.91;5095354;28;20434;-75
2021/11/30 00:15:39;;;;;;;;;;;;;;;0.55;100.00;99967.56;5095226;28;19963;-74
2021/11/30 00:18:05;;;;;;;;;;;;;;;0.58;100.00;99955.84;5095375;28;20491;-75
2021/11/30 00:20:31;;;;;;;;;;;;;;;0.61;100.00;99945.84;5095156;28;19959;-74
2021/11/30 00:22:58;;;;;;;;;;;;;;;0.62;100.00;99939.56;5095428;28;20509;-76
2021/11/30 00:25:25;;;;;;;;;;;;;;;0.63;100.00;99941.28;5095048;28;20012;-76
2021/11/30 00:27:52;;;;;;;;;;;;;;;0.63;100.00;99935.94;5095224;28;20032;-77
2021/11/30 00:30:21;;;;;;;;;;;;;;;0.64;100.00;99929.66;5096434;28;20013;-76
2021/11/30 00:32:47;;;;;;;;;;;;;;;0.65;100.00;99938.53;5095438;28;19935;-76
2021/11/30 00:35:14;;;;;;;;;;;;;;;0.67;100.00;99950.03;5095313;28;20033;-77
2021/11/30 00:37:40;;;;;;;;;;;;;;;0.67;100.00;99944.69;5094969;28;20031;-74
2021/11/30 00:40:07;;;;;;;;;;;;;;;0.70;100.00;99947.19;5094938;28;20055;-75
2021/11/30 00:42:36;;;;;;;;;;;;;;;0.71;100.00;99948.91;5094864;28;19963;-74
2021/11/30 00:45:04;;;;;;;;;;;;;;;0.74;100.00;99955.91;5094802;28;19940;-74
2021/11/30 00:47:31;;;;;;;;;;;;;;;0.76;100.00;99952.22;5094599;28;20016;-76
2021/11/30 00:49:58;;;;;;;;;;;;;;;0.77;100.00;99945.91;5095251;28;20028;-76
2021/11/30 00:52:24;;;;;;;;;;;;;;;0.80;100.00;99950.22;5094728;28;19954;-77
2021/11/30 00:54:51;;;;;;;;;;;;;;;0.81;100.00;99954.63;5094546;28;20037;-75
2021/11/30 00:57:21;;;;;;;;;;;;;;;0.82;100.00;99945.66;5093447;28;19948;-75
2021/11/30 00:59:51;;;;;;;;;;;;;;;0.86;100.00;99941.03;5094526;28;20055;-75
2021/11/30 01:02:18;;;;;;;;;;;;;;;0.86;100.00;99941.88;5094606;28;19941;-75
2021/11/30 01:04:44;;;;;;;;;;;;;;;0.86;100.00;99930.34;5094505;28;20108;-76
2021/11/30 01:07:11;;;;;;;;;;;;;;;0.87;100.00;99926.72;5094208;28;19994;-75
2021/11/30 01:09:38;;;;;;;;;;;;;;;0.87;100.00;99932.03;5094371;28;19924;-75
2021/11/30 01:12:04;;;;;;;;;;;;;;;0.87;100.00;99916.00;5094445;28;19967;-75
2021/11/30 01:14:31;;;;;;;;;;;;;;;0.86;100.00;99923.19;5094236;28;20063;-74
2021/11/30 01:16:59;;;;;;;;;;;;;;;0.84;100.00;99906.34;5093923;28;20314;-74
2021/11/30 01:19:25;;;;;;;;;;;;;;;0.86;100.00;99893.78;5094436;28;20458;-76
2021/11/30 01:21:51;;;;;;;;;;;;;;;0.82;100.00;99892.22;5094387;28;20377;-75
2021/11/30 01:24:18;;;;;;;;;;;;;;;0.77;100.00;99891.59;5094031;28;19966;-75
2021/11/30 01:26:44;;;;;;;;;;;;;;;0.72;100.00;99891.88;5093576;28;20331;-75
2021/11/30 01:29:11;;;;;;;;;;;;;;;0.69;100.00;99886.66;5094024;28;20039;-75
2021/11/30 01:31:37;;;;;;;;;;;;;;;0.69;100.00;99881.31;5093871;28;20044;-75
2021/11/30 01:34:05;;;;;;;;;;;;;;;0.69;100.00;99883.16;5093770;28;19967;-75
2021/11/30 01:36:31;;;;;;;;;;;;;;;0.71;100.00;99878.56;5093599;28;20033;-75
2021/11/30 01:39:00;;;;;;;;;;;;;;;0.71;100.00;99874.09;5093752;28;20068;-75
2021/11/30 01:41:27;;;;;;;;;;;;;;;0.72;100.00;99875.84;5093682;28;19952;-76
2021/11/30 01:43:54;;;;;;;;;;;;;;;0.73;100.00;99874.03;5093760;28;19941;-75
2021/11/30 01:46:27;;;;;;;;;;;;;;;0.74;100.00;99873.09;5093441;28;20003;-75
2021/11/30 01:49:24;;;;;;;;;;;;;;;0.75;100.00;99866.78;5093543;28;19970;-75
2021/11/30 01:51:52;;;;;;;;;;;;;;;0.75;100.00;99864.09;5093406;28;20425;-74
2021/11/30 01:54:18;;;;;;;;;;;;;;;0.75;100.00;99856.09;5093475;28;20386;-75
2021/11/30 01:56:44;;;;;;;;;;;;;;;0.75;100.00;99858.75;5093191;28;20023;-74
2021/11/30 01:59:11;;;;;;;;;;;;;;;0.76;100.00;99861.38;5093402;28;19956;-76
2021/11/30 02:01:37;;;;;;;;;;;;;;;0.77;100.00;99856.88;5092206;28;20417;-75
2021/11/30 02:04:04;;;;;;;;;;;;;;;0.78;100.00;99854.13;5093349;28;20064;-75
2021/11/30 02:06:30;;;;;;;;;;;;;;;0.78;100.00;99851.44;5093017;28;20369;-75
2021/11/30 02:08:58;;;;;;;;;;;;;;;0.81;100.00;99853.09;5092800;28;20007;-75
2021/11/30 02:11:25;;;;;;;;;;;;;;;0.82;100.00;99850.31;5093127;28;20478;-76
2021/11/30 02:13:52;;;;;;;;;;;;;;;0.86;100.00;99842.16;5092870;28;19928;-75
2021/11/30 02:16:20;;;;;;;;;;;;;;;0.88;100.00;99837.59;5093077;28;20031;-76
2021/11/30 02:18:52;;;;;;;;;;;;;;;0.90;100.00;99831.22;5092932;28;20019;-76
2021/11/30 02:21:22;;;;;;;;;;;;;;;0.92;100.00;99828.44;5092980;28;19981;-76
2021/11/30 02:23:57;;;;;;;;;;;;;;;0.95;100.00;99829.16;5093023;28;19928;-75
2021/11/30 02:26:24;;;;;;;;;;;;;;;0.95;100.00;99815.78;5092589;28;19928;-76
2021/11/30 02:28:51;;;;;;;;;;;;;;;0.94;100.00;99816.72;5092840;28;20011;-75
2021/11/30 02:31:18;;;;;;;;;;;;;;;0.96;100.00;99813.97;5092693;28;19924;-76
2021/11/30 02:33:44;;;;;;;;;;;;;;;0.95;100.00;99804.22;5092651;28;20062;-76
2021/11/30 02:36:15;;;;;;;;;;;;;;;0.95;100.00;99801.53;5092728;28;19989;-76
2021/11/30 02:38:43;;;;;;;;;;;;;;;0.97;100.00;99813.03;5092789;28;20049;-75
2021/11/30 02:41:09;;;;;;;;;;;;;;;0.97;100.00;99808.53;5092809;28;19924;-76
2021/11/30 02:43:35;;;;;;;;;;;;;;;0.97;100.00;99795.16;5092494;28;20382;-76
2021/11/30 02:46:02;;;;;;;;;;;;;;;0.97;100.00;99787.13;5092733;28;20023;-76
2021/11/30 02:48:28;;;;;;;;;;;;;;;0.98;100.00;99785.34;5092302;28;20521;-76
2021/11/30 02:50:56;;;;;;;;;;;;;;;0.98;100.00;99770.16;5092469;28;20039;-75
2021/11/30 02:53:23;;;;;;;;;;;;;;;0.98;100.00;99766.63;5092292;28;19956;-75
2021/11/30 02:55:50;;;;;;;;;;;;;;;0.96;100.00;99760.50;5092023;28;20035;-76
2021/11/30 02:58:16;;;;;;;;;;;;;;;0.93;100.00;99750.00;5092379;28;20002;-76
2021/11/30 03:00:43;;;;;;;;;;;;;;;0.94;100.00;99747.25;5092181;28;20385;-76
2021/11/30 03:03:09;;;;;;;;;;;;;;;0.95;100.00;99732.06;5092625;28;20030;-76
2021/11/30 03:05:35;;;;;;;;;;;;;;;0.94;100.00;99725.00;5092030;28;19942;-76
2021/11/30 03:08:02;;;;;;;;;;;;;;;0.92;100.00;99738.47;5092291;28;20048;-76
2021/11/30 03:10:28;;;;;;;;;;;;;;;0.94;100.00;99738.38;5092192;28;19959;-76
2021/11/30 03:12:56;;;;;;;;;;;;;;;0.94;100.00;99730.34;5092193;28;19981;-76
2021/11/30 03:15:23;;;;;;;;;;;;;;;0.94;100.00;99725.00;5092088;28;20449;-75
2021/11/30 03:17:50;;;;;;;;;;;;;;;0.92;100.00;99713.53;5073789;28;19973;-75
2021/11/30 03:20:17;;;;;;;;;;;;;;;0.91;100.00;99711.81;5091509;28;20001;-76
2021/11/30 03:22:43;;;;;;;;;;;;;;;0.90;100.00;99702.09;5091875;28;20080;-76
2021/11/30 03:25:11;;;;;;;;;;;;;;;0.89;100.00;99695.84;5091749;28;19989;-76
2021/11/30 03:27:37;;;;;;;;;;;;;;;0.91;100.00;99683.28;5091923;28;20031;-76
2021/11/30 03:30:06;;;;;;;;;;;;;;;0.90;100.00;99675.38;5091289;28;20052;-75
2021/11/30 03:35:16;;;;;;;;;;;;;;;0.93;100.00;99669.84;5091663;28;19964;-76
2021/11/30 03:37:42;;;;;;;;;;;;;;;0.95;100.00;99658.09;5091880;28;19973;-75
2021/11/30 03:40:11;;;;;;;;;;;;;;;0.96;100.00;99666.97;5091754;28;19992;-76
2021/11/30 03:42:38;;;;;;;;;;;;;;;0.97;100.00;99656.19;5091886;28;19970;-75
2021/11/30 03:45:07;;;;;;;;;;;;;;;0.98;100.00;99647.22;5091647;28;19935;-76
2021/11/30 03:47:33;;;;;;;;;;;;;;;0.98;100.00;99639.19;5091737;28;20065;-75
2021/11/30 03:49:59;;;;;;;;;;;;;;;0.97;100.00;99624.13;5091771;28;20015;-76
2021/11/30 03:52:25;;;;;;;;;;;;;;;0.97;100.00;99621.44;5091840;28;20005;-76
2021/11/30 03:54:52;;;;;;;;;;;;;;;0.96;100.00;99614.41;5091627;28;20400;-76
2021/11/30 03:57:18;;;;;;;;;;;;;;;0.96;100.00;99602.81;5091310;28;19985;-76
2021/11/30 03:59:44;;;;;;;;;;;;;;;0.95;100.00;99601.09;5091515;28;19953;-76
2021/11/30 04:02:15;;;;;;;;;;;;;;;0.93;100.00;99601.19;5091497;28;20038;-76
2021/11/30 04:04:44;;;;;;;;;;;;;;;0.93;100.00;99589.66;5091558;28;19952;-76
2021/11/30 04:07:10;;;;;;;;;;;;;;;0.94;100.00;99578.88;5091449;28;20048;-76
2021/11/30 04:09:37;;;;;;;;;;;;;;;0.94;100.00;99573.53;5073191;28;20023;-76
2021/11/30 04:12:04;;;;;;;;;;;;;;;0.95;100.00;99556.53;5091567;28;20015;-76
2021/11/30 04:14:31;;;;;;;;;;;;;;;0.95;100.00;99548.53;5091659;28;20429;-76
2021/11/30 04:16:57;;;;;;;;;;;;;;;0.97;100.00;99543.09;5091397;28;19945;-76
2021/11/30 04:19:25;;;;;;;;;;;;;;;0.98;100.00;99548.34;5091323;28;19994;-76
2021/11/30 04:21:51;;;;;;;;;;;;;;;0.98;100.00;99540.31;5091350;28;19992;-76
2021/11/30 04:24:18;;;;;;;;;;;;;;;0.96;100.00;99533.34;5091445;28;19972;-76
2021/11/30 04:26:44;;;;;;;;;;;;;;;0.95;100.00;99529.81;5091099;28;20038;-76
2021/11/30 04:29:10;;;;;;;;;;;;;;;0.94;100.00;99516.56;5091322;28;20356;-75
2021/11/30 04:31:39;;;;;;;;;;;;;;;0.91;100.00;99516.72;5092144;28;20529;-76
2021/11/30 04:34:06;;;;;;;;;;;;;;;0.85;100.00;99506.44;5095009;28;20013;-76
2021/11/30 04:36:34;;;;;;;;;;;;;;;0.80;100.00;99498.66;5094714;28;19971;-76
2021/11/30 04:39:00;;;;;;;;;;;;;;;0.74;100.00;99499.91;5095061;28;20048;-76
2021/11/30 04:41:26;;;;;;;;;;;;;;;0.71;100.00;99483.19;5095016;28;19996;-75
2021/11/30 04:43:53;;;;;;;;;;;;;;;0.66;100.00;99478.16;5094577;28;20053;-76
2021/11/30 04:46:22;;;;;;;;;;;;;;;0.63;100.00;99478.34;5094913;28;20026;-75
2021/11/30 04:48:56;;;;;;;;;;;;;;;0.63;100.00;99473.00;5076435;28;20060;-76
2021/11/30 04:51:22;;;;;;;;;;;;;;;0.58;100.00;99473.25;5094886;28;19943;-76
2021/11/30 04:53:51;;;;;;;;;;;;;;;0.58;100.00;99469.72;5094497;28;20464;-76
2021/11/30 04:56:17;;;;;;;;;;;;;;;0.55;100.00;99457.44;5094555;28;19955;-75
2021/11/30 04:58:44;;;;;;;;;;;;;;;0.51;100.00;99458.56;5094379;28;20002;-76
2021/11/30 05:01:10;;;;;;;;;;;;;;;0.47;100.00;99457.03;5094440;28;19924;-75
2021/11/30 05:03:37;;;;;;;;;;;;;;;0.46;100.00;99449.97;5094632;28;20377;-76
2021/11/30 05:06:04;;;;;;;;;;;;;;;0.44;100.00;99443.84;5094260;28;20019;-76
2021/11/30 05:08:31;;;;;;;;;;;;;;;0.43;100.00;99443.00;5094313;28;20380;-75
2021/11/30 05:10:59;;;;;;;;;;;;;;;0.40;100.00;99432.50;5094367;28;19942;-76
2021/11/30 05:13:25;;;;;;;;;;;;;;;0.38;100.00;99425.53;5094329;28;20048;-75
2021/11/30 05:15:51;;;;;;;;;;;;;;;0.36;100.00;99419.41;5093982;28;20005;-75
2021/11/30 05:18:18;;;;;;;;;;;;;;;0.30;100.00;99413.47;5094002;28;19997;-75
2021/11/30 05:20:45;;;;;;;;;;;;;;;0.24;100.00;99400.53;5096881;28;20014;-76
2021/11/30 05:23:14;;;;;;;;;;;;;;;0.15;100.00;99401.91;5078262;28;20354;-76
2021/11/30 05:25:41;;;;;;;;;;;;;;;0.11;100.00;99394.19;5093811;28;19924;-76
2021/11/30 05:28:10;;;;;;;;;;;;;;;0.10;100.00;99382.63;5093885;28;20386;-76
2021/11/30 05:30:37;;;;;;;;;;;;;;;0.08;100.00;99384.56;5093825;28;20005;-76
2021/11/30 05:33:05;;;;;;;;;;;;;;;0.06;100.00;99378.44;5093502;28;19946;-76
2021/11/30 05:35:32;;;;;;;;;;;;;;;0.07;100.00;99364.16;5093298;28;20010;-77
2021/11/30 05:37:58;;;;;;;;;;;;;;;0.08;100.00;99355.19;5093487;28;20458;-76
2021/11/30 05:40:24;;;;;;;;;;;;;;;0.11;100.00;99347.00;5093120;28;19966;-77
2021/11/30 05:42:51;;;;;;;;;;;;;;;0.10;100.00;99339.94;5074296;28;20053;-77
2021/11/30 05:45:18;;;;;;;;;;;;;;;0.13;100.00;99345.13;5084980;28;19924;-76
2021/11/30 05:47:45;;;;;;;;;;;;;;;0.15;100.00;99329.84;5093554;28;20412;-76
2021/11/30 05:50:11;;;;;;;;;;;;;;;0.16;100.00;99334.25;5093532;28;20004;-76
2021/11/30 05:52:37;;;;;;;;;;;;;;;0.21;100.00;99319.75;5092982;28;20041;-75
2021/11/30 05:55:04;;;;;;;;;;;;;;;0.26;100.00;99307.00;5092970;28;20015;-75
2021/11/30 05:57:31;;;;;;;;;;;;;;;0.29;100.00;99293.47;5093109;28;19958;-75
2021/11/30 06:00:00;;;;;;;;;;;;;;;0.32;100.00;99283.47;5093326;28;20053;-76
2021/11/30 06:02:30;;;;;;;;;;;;;;;0.42;100.00;99277.53;5092721;28;20412;-77
2021/11/30 06:04:56;;;;;;;;;;;;;;;0.49;100.00;99276.19;5075078;28;20049;-77
2021/11/30 06:07:22;;;;;;;;;;;;;;;0.55;100.00;99266.94;5074754;28;20045;-76
2021/11/30 06:09:48;;;;;;;;;;;;;;;0.57;100.00;99246.34;5092070;28;19928;-76
2021/11/30 06:12:15;;;;;;;;;;;;;;;0.61;100.00;99255.88;5092416;28;19924;-75
2021/11/30 06:14:41;;;;;;;;;;;;;;;0.62;100.00;99236.22;5092303;28;20018;-76
2021/11/30 06:17:09;;;;;;;;;;;;;;;0.62;100.00;99230.91;5092380;28;20425;-76
2021/11/30 06:19:37;;;;;;;;;;;;;;;0.62;100.00;99221.06;5092391;28;20439;-76
2021/11/30 06:22:04;;;;;;;;;;;;;;;0.63;100.00;99211.25;5092848;28;19946;-76
2021/11/30 06:24:30;;;;;;;;;;;;;;;0.66;100.00;99203.03;5091574;28;20231;-76
2021/11/30 06:26:56;;;;;;;;;;;;;;;0.63;100.00;99195.22;5074357;28;19955;-75
2021/11/30 06:29:23;;;;;;;;;;;;;;;0.59;100.00;99202.56;5092944;28;19932;-76
2021/11/30 06:31:50;;;;;;;;;;;;;;;0.55;100.00;99189.50;5092667;28;19943;-77
2021/11/30 06:34:17;;;;;;;;;;;;;;;0.49;100.00;99183.63;5092688;28;19966;-76
2021/11/30 06:36:44;;;;;;;;;;;;;;;0.39;100.00;99165.59;5074468;28;19965;-77
2021/11/30 06:39:11;;;;;;;;;;;;;;;0.36;100.00;99168.47;5092388;28;19992;-76
2021/11/30 06:41:37;;;;;;;;;;;;;;;0.31;100.00;99158.94;5092527;28;19930;-76
2021/11/30 06:44:03;;;;;;;;;;;;;;;0.26;100.00;99154.84;5074404;28;19939;-76
2021/11/30 06:46:30;;;;;;;;;;;;;;;0.20;100.00;99141.88;5073527;28;19976;-76
2021/11/30 06:48:56;;;;;;;;;;;;;;;0.15;100.00;99124.34;5073738;28;20358;-76
2021/11/30 06:51:23;;;;;;;;;;;;;;;0.14;100.00;99133.31;5092295;28;19983;-76
2021/11/30 06:53:50;;;;;;;;;;;;;;;0.08;100.00;99133.72;5070281;28;19949;-76
2021/11/30 06:56:17;;;;;;;;;;;;;;;0.05;100.00;99123.22;5051177;28;20001;-77
2021/11/30 06:58:43;;;;;;;;;;;;;;;0.04;100.00;99109.97;5090993;28;19995;-76
2021/11/30 07:01:11;;;;;;;;;;;;;;;0.03;100.00;99098.47;5091588;28;20416;-76
2021/11/30 07:03:38;;;;;;;;;;;;;;;0.05;100.00;99082.34;5092229;28;19947;-76
2021/11/30 07:06:10;;;;;;;;;;;;;;;0.07;100.00;99073.28;5073540;28;20403;-76
2021/11/30 07:08:48;;;;;;;;;;;;;;;0.09;100.00;99068.69;5091922;28;20012;-76
2021/11/30 07:11:22;;;;;;;;;;;;;;;0.09;100.00;99066.03;5056981;28;19953;-76
2021/11/30 07:13:49;;;;;;;;;;;;;;;0.11;100.00;99058.78;5091609;28;19947;-76
2021/11/30 07:16:15;;;;;;;;;;;;;;;0.09;100.00;99043.84;5091567;28;20019;-76
2021/11/30 07:18:42;;;;;;;;;;;;;;;0.07;100.00;99040.44;5071458;28;20003;-77
2021/11/30 07:21:08;;;;;;;;;;;;;;;0.04;100.00;99033.47;5073737;28;19953;-77
2021/11/30 07:23:34;;;;;;;;;;;;;;;0.04;100.00;99025.47;5091675;28;19978;-77
2021/11/30 07:26:01;;;;;;;;;;;;;;;0.06;100.00;99023.53;5056146;28;20000;-76
2021/11/30 07:28:30;;;;;;;;;;;;;;;0.09;100.00;99019.81;5091795;28;19939;-76
2021/11/30 07:30:57;;;;;;;;;;;;;;;0.14;100.00;99025.72;5091143;28;20041;-77
2021/11/30 07:33:23;;;;;;;;;;;;;;;0.10;100.00;99014.38;5089929;28;20019;-77
2021/11/30 07:35:50;;;;;;;;;;;;;;;0.03;100.00;99018.41;5073027;28;19957;-77
2021/11/30 07:38:17;;;;;;;;;;;;;;;0.02;100.00;99006.03;5091602;28;19948;-76
2021/11/30 07:40:43;;;;;;;;;;;;;;;0.03;100.00;99006.88;5091484;28;19959;-76
2021/11/30 07:43:10;;;;;;;;;;;;;;;0.06;100.00;99007.53;5087097;28;20012;-78
2021/11/30 07:45:37;;;;;;;;;;;;;;;0.08;100.00;98996.75;5090992;28;19995;-77
2021/11/30 07:48:04;;;;;;;;;;;;;;;0.11;100.00;98989.41;5091429;28;20488;-76
2021/11/30 07:50:30;;;;;;;;;;;;;;;0.12;100.00;98980.47;5091110;28;19969;-76
2021/11/30 07:52:56;;;;;;;;;;;;;;;0.08;100.00;98970.94;5091488;28;19963;-77
2021/11/30 07:55:23;;;;;;;;;;;;;;;0.02;100.00;98967.81;5090866;28;19959;-76
2021/11/30 07:57:49;;;;;;;;;;;;;;;-0.01;100.00;98967.06;5091107;28;19967;-76
2021/11/30 08:00:16;;;;;;;;;;;;;;;0.01;100.00;98966.94;5091076;28;20402;-76
2021/11/30 08:02:44;;;;;;;;;;;;;;;0.06;100.00;98954.16;5072916;28;19945;-76
2021/11/30 08:05:11;;;;;;;;;;;;;;;0.11;100.00;98949.38;5090539;28;19932;-77
2021/11/30 08:07:38;;;;;;;;;;;;;;;0.16;100.00;98935.72;5094529;28;20017;-77
2021/11/30 08:10:07;;;;;;;;;;;;;;;0.23;100.00;98937.03;5095187;28;19928;-77
2021/11/30 08:12:34;;;;;;;;;;;;;;;0.26;100.00;98931.50;5094850;28;19961;-77
2021/11/30 08:15:00;;;;;;;;;;;;;;;0.30;100.00;98921.47;5094604;28;20400;-77
2021/11/30 08:17:26;;;;;;;;;;;;;;;0.23;100.00;98925.50;5094860;28;20042;-77
2021/11/30 08:19:54;;;;;;;;;;;;;;;0.16;100.00;98899.25;5094317;28;20012;-77
2021/11/30 08:22:20;;;;;;;;;;;;;;;0.19;100.00;98902.63;5094705;28;19944;-77
2021/11/30 08:24:47;;;;;;;;;;;;;;;0.20;100.00;98883.00;5094091;28;20174;-77
2021/11/30 08:27:13;;;;;;;;;;;;;;;0.25;100.00;98884.41;5094478;28;20001;-78
2021/11/30 08:29:45;;;;;;;;;;;;;;;0.31;100.00;98875.16;5094234;28;19980;-77
2021/11/30 08:32:11;;;;;;;;;;;;;;;0.42;100.00;98874.41;5093789;28;20058;-78
2021/11/30 08:34:38;;;;;;;;;;;;;;;0.52;100.00;98879.94;5093089;28;19942;-78
2021/11/30 08:37:06;;;;;;;;;;;;;;;0.55;100.00;98882.41;5076187;28;19943;-78
2021/11/30 08:39:33;;;;;;;;;;;;;;;0.58;100.00;98842.16;5083156;28;20335;-78
2021/11/30 08:42:00;;;;;;;;;;;;;;;0.57;100.00;98843.13;5083294;28;20339;-78
2021/11/30 08:44:26;;;;;;;;;;;;;;;0.56;100.00;98841.41;5094334;28;19947;-78
2021/11/30 08:46:52;;;;;;;;;;;;;;;0.54;100.00;98825.47;5094694;28;20359;-77
2021/11/30 08:49:19;;;;;;;;;;;;;;;0.58;100.00;98810.97;5095283;28;19958;-77
2021/11/30 08:51:45;;;;;;;;;;;;;;;0.62;100.00;98828.47;5094521;28;20003;-78
2021/11/30 08:54:13;;;;;;;;;;;;;;;0.66;100.00;98819.28;5059718;28;19953;-78
2021/11/30 08:56:39;;;;;;;;;;;;;;;0.71;100.00;98815.41;5094016;28;20061;-78
2021/11/30 08:59:05;;;;;;;;;;;;;;;0.72;100.00;98812.66;5094397;28;19965;-78
2021/11/30 09:01:32;;;;;;;;;;;;;;;0.75;100.00;98809.78;5093991;28;19955;-78
2021/11/30 09:03:58;;;;;;;;;;;;;;;0.78;100.00;98808.69;5094244;28;19944;-78
2021/11/30 09:06:26;;;;;;;;;;;;;;;0.81;100.00;98811.13;5093704;28;19951;-77
2021/11/30 09:08:52;;;;;;;;;;;;;;;0.80;100.00;98809.44;5094172;28;20371;-78
2021/11/30 09:11:20;;;;;;;;;;;;;;;0.79;100.00;98813.09;5094338;28;19997;-77
2021/11/30 09:13:47;;;;;;;;;;;;;;;0.82;100.00;98807.50;5093526;28;20036;-78
2021/11/30 09:16:13;;;;;;;;;;;;;;;0.85;100.00;98790.41;5093777;28;19987;-77
2021/11/30 09:18:39;;;;;;;;;;;;;;;0.88;100.00;98787.50;5092528;28;20442;-78
2021/11/30 09:21:06;;;;;;;;;;;;;;;0.92;100.00;98787.19;5075818;28;19952;-78
2021/11/30 09:23:32;;;;;;;;;;;;;;;0.99;100.00;98776.91;5093521;28;19935;-77
2021/11/30 09:25:59;;;;;;;;;;;;;;;1.03;100.00;98778.41;5093823;28;20004;-77
2021/11/30 09:28:27;;;;;;;;;;;;;;;1.02;100.00;98782.03;5083156;28;19962;-77
2021/11/30 09:30:53;;;;;;;;;;;;;;;1.03;100.00;98772.19;5075795;28;19990;-77
2021/11/30 09:33:20;;;;;;;;;;;;;;;1.00;100.00;98760.78;5093486;28;19997;-78
2021/11/30 09:35:46;;;;;;;;;;;;;;;1.00;100.00;98767.91;5074700;28;19985;-79
2021/11/30 09:38:13;;;;;;;;;;;;;;;1.02;100.00;98768.66;5088532;28;19989;-77
2021/11/30 09:40:39;;;;;;;;;;;;;;;1.02;100.00;98754.44;5093054;28;20379;-77
2021/11/30 09:43:07;;;;;;;;;;;;;;;1.05;100.00;98759.56;5091137;28;19958;-77
2021/11/30 09:45:38;;;;;;;;;;;;;;;1.09;100.00;98758.38;5073168;28;19941;-78
2021/11/30 09:48:09;;;;;;;;;;;;;;;1.10;100.00;98744.06;5087426;28;19947;-77
2021/11/30 09:50:36;;;;;;;;;;;;;;;1.12;100.00;98758.16;5093267;28;20058;-77
2021/11/30 09:53:03;;;;;;;;;;;;;;;1.15;100.00;98747.25;5092942;28;20401;-77
2021/11/30 09:55:29;;;;;;;;;;;;;;;1.17;100.00;98739.97;5092172;28;20606;-78
2021/11/30 09:57:56;;;;;;;;;;;;;;;1.20;100.00;98738.88;5074886;28;19995;-77
2021/11/30 10:00:23;;;;;;;;;;;;;;;1.23;100.00;98730.63;5058049;28;19959;-77
2021/11/30 10:02:54;;;;;;;;;;;;;;;1.25;100.00;98732.22;5074867;28;20420;-77
2021/11/30 10:05:21;;;;;;;;;;;;;;;1.29;100.00;98728.34;5092480;28;19972;-77
2021/11/30 10:07:48;;;;;;;;;;;;;;;1.33;100.00;98716.44;5092780;28;20307;-77
2021/11/30 10:10:17;;;;;;;;;;;;;;;1.40;100.00;98708.81;5074218;28;19982;-76
2021/11/30 10:12:44;;;;;;;;;;;;;;;1.49;100.00;98700.09;5091878;28;20015;-77
2021/11/30 10:15:11;;;;;;;;;;;;;;;1.56;100.00;98688.94;5091782;28;19989;-76
2021/11/30 10:17:38;;;;;;;;;;;;;;;1.63;100.00;98685.69;5091260;28;19953;-77
2021/11/30 10:20:09;;;;;;;;;;;;;;;1.72;100.00;98688.63;5091864;28;20819;-76
2021/11/30 10:22:38;;;;;;;;;;;;;;;1.79;100.00;98669.31;5073797;28;19986;-76
2021/11/30 10:25:09;;;;;;;;;;;;;;;1.87;100.00;98674.06;5091912;28;19941;-77
2021/11/30 10:27:35;;;;;;;;;;;;;;;1.96;100.00;98675.16;5091078;28;19975;-77
2021/11/30 10:30:09;;;;;;;;;;;;;;;2.04;100.00;98670.06;5091886;28;19957;-77
2021/11/30 10:32:35;;;;;;;;;;;;;;;2.13;100.00;98668.50;5070455;28;20366;-76
2021/11/30 10:35:02;;;;;;;;;;;;;;;2.20;100.00;98656.31;5085973;28;19980;-77
2021/11/30 10:37:30;;;;;;;;;;;;;;;2.28;100.00;98658.38;5091412;28;20377;-77
2021/11/30 10:40:06;;;;;;;;;;;;;;;2.37;100.00;98654.13;5074477;28;19946;-76
2021/11/30 10:42:33;;;;;;;;;;;;;;;2.46;100.00;98654.22;5072946;28;19945;-77
2021/11/30 10:44:59;;;;;;;;;;;;;;;2.55;100.00;98644.59;5091952;28;19946;-77
2021/11/30 10:47:26;;;;;;;;;;;;;;;2.63;100.00;98641.28;5092018;28;19945;-77
2021/11/30 10:49:54;;;;;;;;;;;;;;;2.72;100.00;98648.56;5091639;28;19970;-77
2021/11/30 10:52:21;;;;;;;;;;;;;;;2.80;100.00;98643.44;5086674;28;20357;-77
2021/11/30 10:54:49;;;;;;;;;;;;;;;2.87;100.00;98634.91;5091719;28;19946;-77
2021/11/30 10:57:15;;;;;;;;;;;;;;;2.92;100.00;98635.38;5092008;28;19971;-77
2021/11/30 10:59:43;;;;;;;;;;;;;;;2.99;100.00;98647.28;5091691;28;19971;-77
2021/11/30 11:02:11;;;;;;;;;;;;;;;3.05;100.00;98630.69;5073940;28;20050;-77
2021/11/30 11:04:38;;;;;;;;;;;;;;;3.11;100.00;98635.53;5073407;28;19981;-77
2021/11/30 11:07:08;;;;;;;;;;;;;;;3.14;100.00;98640.66;5091605;28;20008;-77
2021/11/30 11:09:38;;;;;;;;;;;;;;;3.18;100.00;98617.97;5091734;28;20065;-77
2021/11/30 11:12:08;;;;;;;;;;;;;;;3.24;100.00;98638.03;5091879;28;20309;-77
2021/11/30 11:14:43;;;;;;;;;;;;;;;3.33;100.00;98644.47;5087882;28;19955;-77
2021/11/30 11:17:10;;;;;;;;;;;;;;;3.35;100.00;98632.63;5091163;28;20021;-76
2021/11/30 11:19:41;;;;;;;;;;;;;;;3.39;100.00;98625.16;5073223;28;20375;-78
2021/11/30 11:22:15;;;;;;;;;;;;;;;3.43;100.00;98620.41;5090537;28;19950;-78
2021/11/30 11:24:42;;;;;;;;;;;;;;;3.51;100.00;98615.22;5092451;28;20401;-78
2021/11/30 11:27:12;;;;;;;;;;;;;;;3.56;100.00;98618.38;5090374;28;20416;-79
2021/11/30 11:29:42;;;;;;;;;;;;;;;3.61;100.00;98605.41;5091228;28;19971;-78
2021/11/30 11:32:08;;;;;;;;;;;;;;;3.64;100.00;98607.81;5091577;28;19955;-77
2021/11/30 11:34:36;;;;;;;;;;;;;;;3.65;100.00;98601.47;5090782;28;19951;-77
2021/11/30 11:37:04;;;;;;;;;;;;;;;3.70;100.00;98598.38;5089381;28;20495;-77
2021/11/30 11:39:31;;;;;;;;;;;;;;;3.74;100.00;98590.94;5091741;28;19971;-76
2021/11/30 11:41:59;;;;;;;;;;;;;;;3.79;100.00;98591.38;5097074;28;20004;-76
2021/11/30 11:44:27;;;;;;;;;;;;;;;3.82;100.00;98591.97;5089516;28;19956;-78
2021/11/30 11:46:54;;;;;;;;;;;;;;;3.81;100.00;98592.94;5079608;28;20058;-77
2021/11/30 11:49:22;;;;;;;;;;;;;;;3.82;100.00;98597.34;5098047;28;20440;-77
2021/11/30 11:51:50;;;;;;;;;;;;;;;3.83;100.00;98588.28;5096286;28;19992;-77
2021/11/30 11:54:21;;;;;;;;;;;;;;;3.87;100.00;98577.31;5097589;28;20024;-77
2021/11/30 11:56:54;;;;;;;;;;;;;;;3.91;100.00;98584.94;5097801;28;20065;-77
2021/11/30 11:59:21;;;;;;;;;;;;;;;3.93;100.00;98580.28;5097200;28;20009;-77
2021/11/30 12:01:49;;;;;;;;;;;;;;;3.95;100.00;98593.56;5079840;28;20424;-77
2021/11/30 12:04:16;;;;;;;;;;;;;;;3.98;100.00;98585.25;5079696;28;20355;-77
2021/11/30 12:06:50;;;;;;;;;;;;;;;4.00;100.00;98594.03;5092295;28;19949;-77
2021/11/30 12:09:18;;;;;;;;;;;;;;;4.02;100.00;98589.34;5097605;28;19980;-77
2021/11/30 12:11:46;;;;;;;;;;;;;;;4.03;100.00;98564.22;5098031;28;20407;-76
2021/11/30 12:14:14;;;;;;;;;;;;;;;4.04;100.00;98590.09;5098277;28;19958;-77
2021/11/30 12:16:59;;;;;;;;;;;;;;;4.08;100.00;98574.56;5097713;28;20389;-76
2021/11/30 12:19:27;;;;;;;;;;;;;;;4.09;100.00;98574.41;5097808;28;20388;-76
2021/11/30 12:21:53;;;;;;;;;;;;;;;4.12;100.00;98576.00;5079727;28;19987;-77
2021/11/30 12:24:32;;;;;;;;;;;;;;;4.14;100.00;98566.81;5098094;28;20415;-77
2021/11/30 12:27:00;;;;;;;;;;;;;;;4.18;100.00;98570.91;5062737;28;23038;-77
2021/11/30 12:29:33;;;;;;;;;;;;;;;4.21;100.00;98577.00;5098114;28;20443;-78
2021/11/30 12:32:00;;;;;;;;;;;;;;;4.21;100.00;98556.38;5098258;28;20009;-76
2021/11/30 12:34:34;;;;;;;;;;;;;;;4.24;100.00;98574.88;5097672;28;19976;-77
2021/11/30 12:37:04;;;;;;;;;;;;;;;4.21;100.00;98568.94;5097656;28;20012;-77
2021/11/30 12:39:54;;;;;;;;;;;;;;;4.17;100.00;98596.06;5078389;28;20503;-78
2021/11/30 12:42:20;;;;;;;;;;;;;;;4.04;100.00;98587.41;5096696;28;19999;-78
2021/11/30 12:44:47;;;;;;;;;;;;;;;3.94;100.00;98591.88;5097880;28;19958;-78
2021/11/30 12:47:18;;;;;;;;;;;;;;;3.74;100.00;98580.19;5078672;28;19989;-78
2021/11/30 12:49:46;;;;;;;;;;;;;;;3.56;100.00;98586.19;5097437;28;19964;-77
2021/11/30 12:52:14;;;;;;;;;;;;;;;3.37;100.00;98596.78;5094993;28;19953;-77